createdAt,value
2018-07-22T00:03:23.364Z,99.90
2018-07-22T00:07:27.702Z,99.90
2018-07-22T00:11:31.889Z,99.90
2018-07-22T00:15:36.160Z,99.90
2018-07-22T00:19:40.392Z,99.90
2018-07-22T00:23:44.652Z,99.90
2018-07-22T00:27:49.044Z,99.90
2018-07-22T00:31:53.262Z,99.90
2018-07-22T00:35:57.496Z,99.90
2018-07-22T00:40:01.819Z,99.90
2018-07-22T00:44:06.030Z,99.90
2018-07-22T00:48:10.387Z,99.90
2018-07-22T00:52:14.822Z,99.90
2018-07-22T00:56:19.040Z,99.90
2018-07-22T01:00:23.385Z,99.90
2018-07-22T01:04:27.543Z,99.90
2018-07-22T01:08:31.744Z,99.90
2018-07-22T01:12:36.229Z,99.90
2018-07-22T01:16:40.408Z,99.90
2018-07-22T01:20:44.689Z,99.90
2018-07-22T01:24:49.260Z,99.90
2018-07-22T01:28:53.439Z,99.90
2018-07-22T01:32:57.739Z,99.90
2018-07-22T01:37:01.904Z,99.90
2018-07-22T01:41:06.183Z,99.90
2018-07-22T01:45:10.712Z,99.90
2018-07-22T01:49:15.004Z,99.90
2018-07-22T01:53:19.155Z,99.90
2018-07-22T01:57:23.594Z,99.90
2018-07-22T02:01:27.784Z,99.90
2018-07-22T02:05:32.360Z,99.90
2018-07-22T02:09:36.676Z,99.90
2018-07-22T02:13:40.872Z,99.90
2018-07-22T02:17:45.215Z,99.90
2018-07-22T02:21:49.401Z,99.90
2018-07-22T02:25:53.615Z,99.90
2018-07-22T02:30:02.786Z,99.90
2018-07-22T02:34:07.220Z,99.90
2018-07-22T02:38:11.535Z,99.90
2018-07-22T02:42:15.764Z,99.90
2018-07-22T02:46:20.102Z,99.90
2018-07-22T02:50:24.407Z,99.90
2018-07-22T02:54:28.705Z,99.90
2018-07-22T02:58:32.948Z,99.90
2018-07-22T03:02:37.131Z,99.90
2018-07-22T03:06:41.325Z,99.90
2018-07-22T03:10:45.623Z,99.90
2018-07-22T03:14:49.809Z,99.90
2018-07-22T03:18:54.168Z,99.90
2018-07-22T03:22:58.511Z,99.90
2018-07-22T03:27:02.726Z,99.90
2018-07-22T03:31:06.984Z,99.90
2018-07-22T03:35:11.277Z,99.90
2018-07-22T03:39:15.527Z,99.90
2018-07-22T03:43:19.755Z,99.90
2018-07-22T03:47:24.059Z,99.90
2018-07-22T03:51:28.263Z,99.90
2018-07-22T03:55:32.532Z,99.90
2018-07-22T03:59:36.752Z,99.90
2018-07-22T04:03:40.958Z,99.90
2018-07-22T04:07:45.236Z,99.90
2018-07-22T04:11:49.395Z,99.90
2018-07-22T04:15:53.730Z,99.90
2018-07-22T04:19:58.097Z,99.90
2018-07-22T04:24:02.280Z,99.90
2018-07-22T04:28:06.746Z,99.90
2018-07-22T04:32:10.972Z,99.90
2018-07-22T04:36:15.241Z,99.90
2018-07-22T04:40:19.565Z,99.90
2018-07-22T04:44:23.765Z,99.90
2018-07-22T04:48:27.943Z,99.90
2018-07-22T04:52:32.333Z,99.90
2018-07-22T04:56:36.728Z,99.90
2018-07-22T05:00:41.066Z,99.90
2018-07-22T05:04:45.462Z,99.90
2018-07-22T05:08:49.673Z,99.90
2018-07-22T05:12:54.256Z,99.90
2018-07-22T05:16:58.485Z,99.90
2018-07-22T05:21:02.681Z,99.90
2018-07-22T05:25:07.110Z,99.90
2018-07-22T05:29:11.352Z,99.90
2018-07-22T05:33:15.595Z,99.90
2018-07-22T05:37:19.824Z,99.90
2018-07-22T05:41:24.088Z,99.90
2018-07-22T05:45:28.430Z,99.90
2018-07-22T05:49:32.634Z,99.90
2018-07-22T05:53:37.016Z,99.90
2018-07-22T05:57:41.217Z,98.80
2018-07-22T06:01:45.391Z,99.00
2018-07-22T06:05:49.939Z,98.90
2018-07-22T06:09:54.170Z,99.50
2018-07-22T06:13:58.368Z,99.30
2018-07-22T06:18:02.914Z,97.80
2018-07-22T06:22:07.487Z,96.40
2018-07-22T06:26:12.231Z,97.10
2018-07-22T06:30:16.859Z,98.30
2018-07-22T06:34:21.386Z,94.40
2018-07-22T06:38:25.992Z,94.20
2018-07-22T06:42:30.615Z,93.10
2018-07-22T06:46:35.461Z,92.50
2018-07-22T06:50:40.093Z,93.70
2018-07-22T06:54:44.667Z,95.50
2018-07-22T06:58:49.431Z,91.60
2018-07-22T07:02:53.982Z,93.40
2018-07-22T07:06:58.668Z,94.40
2018-07-22T07:11:03.242Z,93.20
2018-07-22T07:15:08.200Z,91.10
2018-07-22T07:19:12.793Z,89.30
2018-07-22T07:23:17.410Z,89.60
2018-07-22T07:27:22.373Z,89.80
2018-07-22T07:31:27.060Z,87.50
2018-07-22T07:35:31.571Z,86.70
2018-07-22T07:39:36.186Z,86.00
2018-07-22T07:43:41.278Z,87.10
2018-07-22T07:47:45.867Z,85.10
2018-07-22T07:51:50.424Z,86.10
2018-07-22T07:55:55.155Z,82.70
2018-07-22T07:59:59.989Z,82.70
2018-07-22T08:04:04.646Z,84.60
2018-07-22T08:08:09.224Z,82.70
2018-07-22T08:12:13.911Z,80.00
2018-07-22T08:16:18.571Z,79.00
2018-07-22T08:20:23.220Z,76.30
2018-07-22T08:24:27.996Z,77.60
2018-07-22T08:29:46.413Z,78.40
2018-07-22T08:33:50.939Z,75.50
2018-07-22T08:37:55.529Z,75.40
2018-07-22T08:42:00.529Z,76.90
2018-07-22T08:46:05.063Z,69.90
2018-07-22T08:50:09.660Z,69.10
2018-07-22T08:54:14.692Z,65.40
2018-07-22T08:58:19.622Z,64.30
2018-07-22T09:02:24.491Z,61.90
2018-07-22T09:06:29.838Z,59.80
2018-07-22T09:10:34.655Z,59.20
2018-07-22T09:14:39.537Z,58.60
2018-07-22T09:18:44.350Z,60.60
2018-07-22T09:22:48.963Z,59.70
2018-07-22T09:26:53.517Z,57.50
2018-07-22T09:30:58.234Z,56.10
2018-07-22T09:35:02.962Z,57.90
2018-07-22T09:39:10.510Z,56.40
2018-07-22T09:43:15.250Z,53.80
2018-07-22T09:47:19.808Z,54.40
2018-07-22T09:51:24.260Z,53.30
2018-07-22T09:55:28.977Z,51.60
2018-07-22T09:59:33.680Z,50.00
2018-07-22T10:03:38.287Z,47.90
2018-07-22T10:07:42.963Z,46.70
2018-07-22T10:11:47.979Z,47.80
2018-07-22T10:15:52.952Z,46.40
2018-07-22T10:19:58.023Z,45.80
2018-07-22T10:24:02.631Z,47.30
2018-07-22T10:28:08.264Z,45.30
2018-07-22T10:32:13.617Z,46.00
2018-07-22T10:36:18.370Z,45.70
2018-07-22T10:40:23.298Z,41.00
2018-07-22T10:44:27.797Z,42.40
2018-07-22T10:48:32.607Z,41.00
2018-07-22T10:52:37.371Z,38.50
2018-07-22T10:56:42.026Z,39.70
2018-07-22T11:00:47.072Z,44.80
2018-07-22T11:04:51.761Z,44.60
2018-07-22T11:08:56.827Z,42.10
2018-07-22T11:13:01.560Z,42.70
2018-07-22T11:17:06.374Z,39.30
2018-07-22T11:21:11.694Z,35.60
2018-07-22T11:25:16.402Z,38.70
2018-07-22T11:29:21.351Z,38.80
2018-07-22T11:33:26.056Z,39.90
2018-07-22T11:37:30.864Z,45.40
2018-07-22T11:41:35.827Z,44.50
2018-07-22T11:45:40.454Z,50.30
2018-07-22T11:49:51.061Z,54.50
2018-07-22T11:53:55.991Z,52.60
2018-07-22T11:58:00.633Z,58.10
2018-07-22T12:02:05.345Z,53.40
2018-07-22T12:06:09.978Z,53.10
2018-07-22T12:10:14.691Z,52.00
2018-07-22T12:14:19.622Z,52.00
2018-07-22T12:18:24.495Z,52.20
2018-07-22T12:22:29.196Z,52.50
2018-07-22T12:26:33.847Z,50.50
2018-07-22T12:30:41.913Z,49.90
2018-07-22T12:34:46.912Z,45.40
2018-07-22T12:38:51.463Z,45.40
2018-07-22T12:42:56.167Z,42.00
2018-07-22T12:47:01.562Z,45.80
2018-07-22T12:51:06.385Z,40.50
2018-07-22T12:55:11.122Z,43.40
2018-07-22T12:59:15.638Z,44.80
2018-07-22T13:03:20.279Z,47.10
2018-07-22T13:07:24.571Z,53.00
2018-07-22T13:11:29.185Z,53.40
2018-07-22T13:15:33.539Z,59.70
2018-07-22T13:19:38.197Z,57.40
2018-07-22T13:23:42.473Z,55.90
2018-07-22T13:27:47.174Z,59.40
2018-07-22T13:31:51.467Z,64.40
2018-07-22T13:39:57.609Z,63.80
2018-07-22T13:44:01.819Z,59.00
2018-07-22T13:48:06.325Z,61.60
2018-07-22T13:52:10.805Z,59.60
2018-07-22T13:56:15.164Z,61.90
2018-07-22T14:00:19.401Z,60.00
2018-07-22T14:04:23.682Z,60.80
2018-07-22T14:08:27.926Z,61.00
2018-07-22T14:12:32.104Z,62.10
2018-07-22T14:16:36.737Z,58.80
2018-07-22T14:20:41.153Z,59.00
2018-07-22T14:24:45.382Z,60.80
2018-07-22T14:28:49.688Z,57.30
2018-07-22T14:32:53.964Z,59.20
2018-07-22T14:36:58.478Z,55.20
2018-07-22T14:41:02.838Z,58.30
2018-07-22T14:45:07.832Z,58.20
2018-07-22T14:49:13.876Z,58.90
2018-07-22T14:53:18.276Z,57.70
2018-07-22T14:57:22.540Z,54.80
2018-07-22T15:01:26.875Z,51.30
2018-07-22T15:05:31.097Z,50.80
2018-07-22T15:09:35.656Z,54.20
2018-07-22T15:13:39.917Z,50.10
2018-07-22T15:17:44.188Z,49.50
2018-07-22T15:21:48.782Z,49.10
2018-07-22T15:25:53.078Z,48.30
2018-07-22T15:29:57.286Z,49.60
2018-07-22T15:34:01.610Z,49.80
2018-07-22T15:38:05.850Z,50.20
2018-07-22T15:42:10.426Z,48.50
2018-07-22T15:46:14.736Z,51.00
2018-07-22T15:50:18.960Z,48.50
2018-07-22T15:54:23.274Z,52.50
2018-07-22T15:58:27.733Z,48.20
2018-07-22T16:02:32.249Z,48.10
2018-07-22T16:06:36.528Z,50.20
2018-07-22T16:10:41.277Z,48.30
2018-07-22T16:14:46.353Z,50.30
2018-07-22T16:18:50.573Z,50.80
2018-07-22T16:22:54.880Z,52.90
2018-07-22T16:26:59.231Z,52.50
2018-07-22T16:31:03.635Z,50.80
2018-07-22T16:35:07.866Z,52.00
2018-07-22T16:39:12.235Z,50.80
2018-07-22T16:43:16.806Z,51.10
2018-07-22T16:47:21.097Z,52.10
2018-07-22T16:51:25.638Z,52.40
2018-07-22T16:55:29.975Z,52.90
2018-07-22T16:59:34.151Z,54.40
2018-07-22T17:03:38.511Z,52.20
2018-07-22T17:07:42.843Z,54.70
2018-07-22T17:11:47.100Z,52.40
2018-07-22T17:15:51.327Z,52.80
2018-07-22T17:19:55.595Z,53.40
2018-07-22T17:23:59.860Z,55.20
2018-07-22T17:28:04.194Z,55.10
2018-07-22T17:32:08.650Z,54.90
2018-07-22T17:36:12.940Z,55.50
2018-07-22T17:40:17.370Z,55.20
2018-07-22T17:44:21.955Z,55.80
2018-07-22T17:48:27.008Z,55.80
2018-07-22T17:52:32.257Z,56.30
2018-07-22T17:56:37.443Z,59.00
2018-07-22T18:00:42.256Z,57.00
2018-07-22T18:04:48.160Z,57.50
2018-07-22T18:08:52.981Z,58.10
2018-07-22T18:12:59.002Z,57.90
2018-07-22T18:17:04.675Z,59.60
2018-07-22T18:21:10.134Z,59.10
2018-07-22T18:25:15.536Z,60.90
2018-07-22T18:29:20.847Z,59.50
2018-07-22T18:33:26.878Z,59.20
2018-07-22T18:37:32.676Z,60.10
2018-07-22T18:41:38.138Z,62.10
2018-07-22T18:45:43.833Z,60.10
2018-07-22T18:49:49.296Z,60.60
2018-07-22T18:53:55.428Z,60.70
2018-07-22T18:58:02.592Z,61.50
2018-07-22T19:02:08.711Z,62.20
2018-07-22T19:06:14.948Z,66.10
2018-07-22T19:10:20.496Z,66.60
2018-07-22T19:14:26.629Z,64.20
2018-07-22T19:18:32.131Z,62.10
2018-07-22T19:22:36.789Z,65.00
2018-07-22T19:26:41.835Z,65.80
2018-07-22T19:30:47.803Z,65.80
2018-07-22T19:34:53.167Z,65.60
2018-07-22T19:39:00.613Z,65.50
2018-07-22T19:43:08.476Z,64.10
2018-07-22T19:47:15.009Z,66.70
2018-07-22T19:51:20.687Z,65.60
2018-07-22T19:55:27.462Z,62.70
2018-07-22T19:59:33.632Z,62.00
2018-07-22T20:03:39.379Z,62.30
2018-07-22T20:07:44.329Z,64.20
2018-07-22T20:11:48.893Z,65.70
2018-07-22T20:15:54.370Z,70.60
2018-07-22T20:19:59.643Z,67.90
2018-07-22T20:24:05.105Z,69.20
2018-07-22T20:28:09.863Z,71.70
2018-07-22T20:32:15.656Z,72.60
2018-07-22T20:36:20.402Z,77.10
2018-07-22T20:40:24.825Z,80.30
2018-07-22T20:44:29.529Z,82.80
2018-07-22T20:48:34.346Z,80.00
2018-07-22T20:52:38.559Z,82.90
2018-07-22T20:56:43.369Z,81.30
2018-07-22T21:00:49.049Z,76.50
2018-07-22T21:04:53.518Z,78.30
2018-07-22T21:08:58.753Z,78.10
2018-07-22T21:13:16.408Z,78.00
2018-07-22T21:17:21.424Z,78.80
2018-07-22T21:21:26.618Z,80.10
2018-07-22T21:25:31.433Z,80.00
2018-07-22T21:29:36.528Z,78.20
2018-07-22T21:33:40.916Z,81.10
2018-07-22T21:37:45.121Z,83.30
2018-07-22T21:41:49.473Z,82.50
2018-07-22T21:45:53.692Z,83.50
2018-07-22T21:49:57.899Z,84.30
2018-07-22T21:54:02.390Z,86.10
2018-07-22T21:58:06.593Z,86.60
2018-07-22T22:02:10.776Z,86.50
2018-07-22T22:06:15.117Z,89.90
2018-07-22T22:10:19.408Z,89.80
2018-07-22T22:14:23.651Z,89.70
2018-07-22T22:18:27.957Z,91.00
2018-07-22T22:22:32.156Z,91.00
2018-07-22T22:26:36.333Z,90.60
2018-07-22T22:30:40.645Z,92.50
2018-07-22T22:34:44.835Z,93.80
2018-07-22T22:38:49.189Z,94.50
2018-07-22T22:42:53.584Z,95.60
2018-07-22T22:46:57.868Z,96.20
2018-07-22T22:51:02.238Z,96.20
2018-07-22T22:55:06.513Z,95.50
2018-07-22T22:59:20.221Z,96.40
2018-07-22T23:03:24.399Z,96.10
2018-07-22T23:07:28.680Z,97.30
2018-07-22T23:11:33.038Z,96.50
2018-07-22T23:15:37.355Z,96.80
2018-07-22T23:19:41.550Z,97.00
2018-07-22T23:23:45.840Z,95.30
2018-07-22T23:27:50.045Z,92.20
2018-07-22T23:31:54.341Z,94.10
2018-07-22T23:35:58.573Z,93.60
2018-07-22T23:40:02.792Z,94.10
2018-07-22T23:44:07.438Z,95.50
2018-07-22T23:48:11.697Z,95.20
2018-07-22T23:52:15.905Z,94.00
2018-07-22T23:56:20.319Z,96.00
